sensor_id;sensor_type;location;lat;lon;timestamp;P1;durP1;ratioP1;P2;durP2;ratioP2
13832;SDS011;6987;19.472;-99.276;2022-09-13T00:01:08;2.80;;;2.13;;
13832;SDS011;6987;19.472;-99.276;2022-09-13T00:03:37;3.13;;;2.92;;
13832;SDS011;6987;19.472;-99.276;2022-09-13T00:06:07;3.47;;;2.97;;
13832;SDS011;6987;19.472;-99.276;2022-09-13T00:08:36;3.67;;;2.90;;
13832;SDS011;6987;19.472;-99.276;2022-09-13T00:11:06;2.60;;;2.40;;
13832;SDS011;6987;19.472;-99.276;2022-09-13T00:13:35;3.40;;;3.20;;
13832;SDS011;6987;19.472;-99.276;2022-09-13T00:16:08;3.20;;;2.88;;
13832;SDS011;6987;19.472;-99.276;2022-09-13T00:18:38;3.13;;;2.90;;
13832;SDS011;6987;19.472;-99.276;2022-09-13T00:21:07;3.17;;;2.88;;
13832;SDS011;6987;19.472;-99.276;2022-09-13T00:23:37;2.42;;;2.33;;
13832;SDS011;6987;19.472;-99.276;2022-09-13T00:26:08;2.95;;;2.60;;
13832;SDS011;6987;19.472;-99.276;2022-09-13T00:28:37;3.45;;;3.13;;
13832;SDS011;6987;19.472;-99.276;2022-09-13T00:31:07;6.47;;;2.90;;
13832;SDS011;6987;19.472;-99.276;2022-09-13T00:33:36;3.22;;;2.88;;
13832;SDS011;6987;19.472;-99.276;2022-09-13T00:36:06;3.42;;;2.83;;
13832;SDS011;6987;19.472;-99.276;2022-09-13T00:38:35;3.53;;;2.50;;
13832;SDS011;6987;19.472;-99.276;2022-09-13T00:41:04;3.40;;;2.95;;
13832;SDS011;6987;19.472;-99.276;2022-09-13T00:43:42;3.58;;;2.58;;
13832;SDS011;6987;19.472;-99.276;2022-09-13T00:46:12;2.78;;;2.50;;
13832;SDS011;6987;19.472;-99.276;2022-09-13T00:48:44;3.10;;;2.90;;
13832;SDS011;6987;19.472;-99.276;2022-09-13T00:51:13;3.20;;;2.90;;
13832;SDS011;6987;19.472;-99.276;2022-09-13T00:53:42;3.08;;;2.88;;
13832;SDS011;6987;19.472;-99.276;2022-09-13T00:56:14;3.15;;;2.67;;
13832;SDS011;6987;19.472;-99.276;2022-09-13T00:58:46;2.38;;;2.28;;
13832;SDS011;6987;19.472;-99.276;2022-09-13T01:01:16;2.63;;;2.50;;
13832;SDS011;6987;19.472;-99.276;2022-09-13T01:03:46;3.90;;;2.67;;
13832;SDS011;6987;19.472;-99.276;2022-09-13T01:06:17;2.58;;;2.47;;
13832;SDS011;6987;19.472;-99.276;2022-09-13T01:08:48;4.00;;;2.65;;
13832;SDS011;6987;19.472;-99.276;2022-09-13T01:11:19;3.63;;;2.80;;
13832;SDS011;6987;19.472;-99.276;2022-09-13T01:13:54;3.03;;;2.75;;
13832;SDS011;6987;19.472;-99.276;2022-09-13T01:16:23;3.13;;;2.88;;
13832;SDS011;6987;19.472;-99.276;2022-09-13T01:18:53;18.42;;;2.97;;
13832;SDS011;6987;19.472;-99.276;2022-09-13T01:21:34;6.70;;;2.67;;
13832;SDS011;6987;19.472;-99.276;2022-09-13T01:24:11;4.50;;;3.17;;
13832;SDS011;6987;19.472;-99.276;2022-09-13T01:26:51;3.25;;;2.95;;
13832;SDS011;6987;19.472;-99.276;2022-09-13T01:32:25;2.88;;;2.78;;
13832;SDS011;6987;19.472;-99.276;2022-09-13T01:34:57;3.72;;;3.05;;
13832;SDS011;6987;19.472;-99.276;2022-09-13T01:37:38;2.63;;;2.42;;
13832;SDS011;6987;19.472;-99.276;2022-09-13T01:40:14;3.22;;;2.85;;
13832;SDS011;6987;19.472;-99.276;2022-09-13T01:42:47;3.55;;;2.88;;
13832;SDS011;6987;19.472;-99.276;2022-09-13T01:45:27;3.05;;;2.58;;
13832;SDS011;6987;19.472;-99.276;2022-09-13T01:48:00;3.33;;;2.85;;
13832;SDS011;6987;19.472;-99.276;2022-09-13T01:50:33;3.75;;;3.03;;
13832;SDS011;6987;19.472;-99.276;2022-09-13T01:53:04;3.13;;;2.90;;
13832;SDS011;6987;19.472;-99.276;2022-09-13T01:55:36;3.38;;;2.72;;
13832;SDS011;6987;19.472;-99.276;2022-09-13T01:58:08;3.92;;;3.03;;
13832;SDS011;6987;19.472;-99.276;2022-09-13T02:00:39;3.53;;;3.25;;
13832;SDS011;6987;19.472;-99.276;2022-09-13T02:03:11;3.40;;;2.92;;
13832;SDS011;6987;19.472;-99.276;2022-09-13T02:05:43;3.08;;;2.88;;
13832;SDS011;6987;19.472;-99.276;2022-09-13T02:08:15;7.07;;;3.67;;
13832;SDS011;6987;19.472;-99.276;2022-09-13T02:10:45;5.88;;;3.65;;
13832;SDS011;6987;19.472;-99.276;2022-09-13T02:13:17;6.30;;;3.25;;
13832;SDS011;6987;19.472;-99.276;2022-09-13T02:15:47;4.07;;;3.40;;
13832;SDS011;6987;19.472;-99.276;2022-09-13T02:18:19;2.90;;;2.70;;
13832;SDS011;6987;19.472;-99.276;2022-09-13T02:20:49;3.33;;;3.13;;
13832;SDS011;6987;19.472;-99.276;2022-09-13T02:23:20;2.90;;;2.70;;
13832;SDS011;6987;19.472;-99.276;2022-09-13T02:25:50;3.13;;;2.92;;
13832;SDS011;6987;19.472;-99.276;2022-09-13T02:28:21;5.20;;;2.95;;
13832;SDS011;6987;19.472;-99.276;2022-09-13T02:30:50;3.42;;;3.25;;
13832;SDS011;6987;19.472;-99.276;2022-09-13T02:33:22;2.92;;;2.72;;
13832;SDS011;6987;19.472;-99.276;2022-09-13T02:35:54;3.20;;;3.10;;
13832;SDS011;6987;19.472;-99.276;2022-09-13T02:38:24;3.55;;;3.22;;
13832;SDS011;6987;19.472;-99.276;2022-09-13T02:40:55;4.70;;;3.03;;
13832;SDS011;6987;19.472;-99.276;2022-09-13T02:43:26;3.08;;;2.88;;
13832;SDS011;6987;19.472;-99.276;2022-09-13T02:45:58;3.95;;;3.42;;
13832;SDS011;6987;19.472;-99.276;2022-09-13T02:48:33;4.40;;;3.97;;
13832;SDS011;6987;19.472;-99.276;2022-09-13T02:51:05;5.07;;;4.68;;
13832;SDS011;6987;19.472;-99.276;2022-09-13T02:53:36;4.18;;;3.85;;
13832;SDS011;6987;19.472;-99.276;2022-09-13T02:56:09;6.95;;;4.43;;
13832;SDS011;6987;19.472;-99.276;2022-09-13T02:58:40;5.57;;;4.50;;
13832;SDS011;6987;19.472;-99.276;2022-09-13T03:01:12;4.18;;;3.97;;
13832;SDS011;6987;19.472;-99.276;2022-09-13T03:03:43;4.45;;;4.15;;
13832;SDS011;6987;19.472;-99.276;2022-09-13T03:06:12;4.63;;;3.85;;
13832;SDS011;6987;19.472;-99.276;2022-09-13T03:08:41;5.65;;;4.53;;
13832;SDS011;6987;19.472;-99.276;2022-09-13T03:11:10;4.72;;;4.32;;
13832;SDS011;6987;19.472;-99.276;2022-09-13T03:16:27;4.72;;;4.32;;
13832;SDS011;6987;19.472;-99.276;2022-09-13T03:19:05;4.88;;;4.47;;
13832;SDS011;6987;19.472;-99.276;2022-09-13T03:21:43;4.75;;;4.43;;
13832;SDS011;6987;19.472;-99.276;2022-09-13T03:24:21;4.18;;;3.88;;
13832;SDS011;6987;19.472;-99.276;2022-09-13T03:26:54;6.78;;;4.22;;
13832;SDS011;6987;19.472;-99.276;2022-09-13T03:29:26;4.75;;;4.32;;
13832;SDS011;6987;19.472;-99.276;2022-09-13T03:32:02;7.45;;;4.57;;
13832;SDS011;6987;19.472;-99.276;2022-09-13T03:34:37;7.80;;;4.97;;
13832;SDS011;6987;19.472;-99.276;2022-09-13T03:37:09;5.75;;;5.22;;
13832;SDS011;6987;19.472;-99.276;2022-09-13T03:39:42;5.22;;;4.72;;
13832;SDS011;6987;19.472;-99.276;2022-09-13T03:42:19;6.32;;;5.22;;
13832;SDS011;6987;19.472;-99.276;2022-09-13T03:44:49;6.00;;;5.50;;
13832;SDS011;6987;19.472;-99.276;2022-09-13T03:47:19;5.05;;;4.65;;
13832;SDS011;6987;19.472;-99.276;2022-09-13T03:49:51;5.47;;;5.00;;
13832;SDS011;6987;19.472;-99.276;2022-09-13T03:52:21;5.22;;;4.82;;
13832;SDS011;6987;19.472;-99.276;2022-09-13T03:54:50;5.57;;;5.07;;
13832;SDS011;6987;19.472;-99.276;2022-09-13T03:57:20;6.78;;;5.28;;
13832;SDS011;6987;19.472;-99.276;2022-09-13T03:59:49;6.97;;;5.00;;
13832;SDS011;6987;19.472;-99.276;2022-09-13T04:02:18;6.20;;;5.60;;
13832;SDS011;6987;19.472;-99.276;2022-09-13T04:04:48;5.78;;;5.18;;
13832;SDS011;6987;19.472;-99.276;2022-09-13T04:07:19;5.82;;;5.32;;
13832;SDS011;6987;19.472;-99.276;2022-09-13T04:09:48;5.15;;;4.75;;
13832;SDS011;6987;19.472;-99.276;2022-09-13T04:12:17;6.28;;;4.55;;
13832;SDS011;6987;19.472;-99.276;2022-09-13T04:14:46;5.07;;;4.68;;
13832;SDS011;6987;19.472;-99.276;2022-09-13T04:17:15;5.70;;;5.28;;
13832;SDS011;6987;19.472;-99.276;2022-09-13T04:19:44;5.38;;;4.90;;
13832;SDS011;6987;19.472;-99.276;2022-09-13T04:22:13;5.47;;;5.07;;
13832;SDS011;6987;19.472;-99.276;2022-09-13T04:24:44;8.80;;;5.50;;
13832;SDS011;6987;19.472;-99.276;2022-09-13T04:27:12;5.03;;;4.72;;
13832;SDS011;6987;19.472;-99.276;2022-09-13T04:29:41;6.70;;;6.13;;
13832;SDS011;6987;19.472;-99.276;2022-09-13T04:32:10;6.28;;;5.78;;
13832;SDS011;6987;19.472;-99.276;2022-09-13T04:34:39;6.55;;;6.03;;
13832;SDS011;6987;19.472;-99.276;2022-09-13T04:37:08;6.78;;;6.10;;
13832;SDS011;6987;19.472;-99.276;2022-09-13T04:39:37;7.05;;;6.00;;
13832;SDS011;6987;19.472;-99.276;2022-09-13T04:42:08;6.28;;;5.78;;
13832;SDS011;6987;19.472;-99.276;2022-09-13T04:44:37;5.32;;;4.93;;
13832;SDS011;6987;19.472;-99.276;2022-09-13T04:47:07;5.57;;;4.65;;
13832;SDS011;6987;19.472;-99.276;2022-09-13T04:49:36;6.93;;;5.55;;
13832;SDS011;6987;19.472;-99.276;2022-09-13T04:52:05;5.85;;;5.40;;
13832;SDS011;6987;19.472;-99.276;2022-09-13T04:54:33;5.57;;;5.18;;
13832;SDS011;6987;19.472;-99.276;2022-09-13T04:57:03;6.00;;;5.50;;
13832;SDS011;6987;19.472;-99.276;2022-09-13T04:59:33;7.20;;;6.55;;
13832;SDS011;6987;19.472;-99.276;2022-09-13T05:02:02;6.13;;;5.63;;
13832;SDS011;6987;19.472;-99.276;2022-09-13T05:04:31;7.05;;;6.45;;
13832;SDS011;6987;19.472;-99.276;2022-09-13T05:06:59;7.88;;;6.70;;
13832;SDS011;6987;19.472;-99.276;2022-09-13T05:09:28;7.80;;;7.10;;
13832;SDS011;6987;19.472;-99.276;2022-09-13T05:11:57;6.95;;;6.25;;
13832;SDS011;6987;19.472;-99.276;2022-09-13T05:14:26;7.60;;;6.85;;
13832;SDS011;6987;19.472;-99.276;2022-09-13T05:16:57;8.15;;;7.40;;
13832;SDS011;6987;19.472;-99.276;2022-09-13T05:19:26;10.65;;;7.38;;
13832;SDS011;6987;19.472;-99.276;2022-09-13T05:21:55;8.43;;;7.70;;
13832;SDS011;6987;19.472;-99.276;2022-09-13T05:24:23;10.20;;;9.15;;
13832;SDS011;6987;19.472;-99.276;2022-09-13T05:26:52;9.90;;;9.10;;
13832;SDS011;6987;19.472;-99.276;2022-09-13T05:29:21;9.07;;;8.18;;
13832;SDS011;6987;19.472;-99.276;2022-09-13T05:31:50;10.80;;;9.75;;
13832;SDS011;6987;19.472;-99.276;2022-09-13T05:34:20;12.40;;;11.13;;
13832;SDS011;6987;19.472;-99.276;2022-09-13T05:36:49;12.30;;;10.13;;
13832;SDS011;6987;19.472;-99.276;2022-09-13T05:39:18;10.93;;;9.93;;
13832;SDS011;6987;19.472;-99.276;2022-09-13T05:41:47;14.25;;;11.07;;
13832;SDS011;6987;19.472;-99.276;2022-09-13T05:44:16;11.88;;;10.65;;
13832;SDS011;6987;19.472;-99.276;2022-09-13T05:46:45;10.63;;;9.70;;
13832;SDS011;6987;19.472;-99.276;2022-09-13T05:49:15;11.68;;;10.55;;
13832;SDS011;6987;19.472;-99.276;2022-09-13T05:51:45;13.25;;;11.23;;
13832;SDS011;6987;19.472;-99.276;2022-09-13T05:54:14;11.70;;;10.60;;
13832;SDS011;6987;19.472;-99.276;2022-09-13T05:56:43;11.20;;;10.10;;
13832;SDS011;6987;19.472;-99.276;2022-09-13T05:59:12;12.55;;;11.25;;
13832;SDS011;6987;19.472;-99.276;2022-09-13T06:01:41;10.98;;;9.75;;
13832;SDS011;6987;19.472;-99.276;2022-09-13T06:04:10;10.93;;;9.90;;
13832;SDS011;6987;19.472;-99.276;2022-09-13T06:06:39;10.77;;;9.75;;
13832;SDS011;6987;19.472;-99.276;2022-09-13T06:09:10;11.32;;;10.23;;
13832;SDS011;6987;19.472;-99.276;2022-09-13T06:11:39;22.88;;;10.95;;
13832;SDS011;6987;19.472;-99.276;2022-09-13T06:14:08;10.80;;;9.73;;
13832;SDS011;6987;19.472;-99.276;2022-09-13T06:16:37;11.60;;;10.45;;
13832;SDS011;6987;19.472;-99.276;2022-09-13T06:19:06;11.63;;;10.50;;
13832;SDS011;6987;19.472;-99.276;2022-09-13T06:21:35;10.77;;;9.77;;
13832;SDS011;6987;19.472;-99.276;2022-09-13T06:24:04;11.55;;;10.45;;
13832;SDS011;6987;19.472;-99.276;2022-09-13T06:26:35;11.73;;;10.20;;
13832;SDS011;6987;19.472;-99.276;2022-09-13T06:29:04;12.25;;;10.18;;
13832;SDS011;6987;19.472;-99.276;2022-09-13T06:31:33;12.35;;;11.18;;
13832;SDS011;6987;19.472;-99.276;2022-09-13T06:34:03;12.32;;;11.18;;
13832;SDS011;6987;19.472;-99.276;2022-09-13T06:36:32;12.07;;;10.77;;
13832;SDS011;6987;19.472;-99.276;2022-09-13T06:39:01;13.15;;;11.90;;
13832;SDS011;6987;19.472;-99.276;2022-09-13T06:41:31;11.73;;;10.63;;
13832;SDS011;6987;19.472;-99.276;2022-09-13T06:44:02;12.85;;;11.55;;
13832;SDS011;6987;19.472;-99.276;2022-09-13T06:46:31;13.52;;;12.20;;
13832;SDS011;6987;19.472;-99.276;2022-09-13T06:49:01;12.88;;;11.65;;
13832;SDS011;6987;19.472;-99.276;2022-09-13T06:51:31;14.43;;;13.00;;
13832;SDS011;6987;19.472;-99.276;2022-09-13T06:54:00;16.15;;;14.35;;
13832;SDS011;6987;19.472;-99.276;2022-09-13T06:56:29;14.27;;;12.82;;
13832;SDS011;6987;19.472;-99.276;2022-09-13T06:58:59;15.63;;;14.02;;
13832;SDS011;6987;19.472;-99.276;2022-09-13T07:01:31;17.05;;;13.45;;
13832;SDS011;6987;19.472;-99.276;2022-09-13T07:04:01;16.05;;;13.80;;
13832;SDS011;6987;19.472;-99.276;2022-09-13T07:06:31;17.52;;;14.65;;
13832;SDS011;6987;19.472;-99.276;2022-09-13T07:09:00;16.98;;;14.35;;
13832;SDS011;6987;19.472;-99.276;2022-09-13T07:11:30;17.25;;;14.13;;
13832;SDS011;6987;19.472;-99.276;2022-09-13T07:13:59;14.98;;;13.48;;
13832;SDS011;6987;19.472;-99.276;2022-09-13T07:16:29;16.05;;;13.68;;
13832;SDS011;6987;19.472;-99.276;2022-09-13T07:19:00;16.98;;;15.25;;
13832;SDS011;6987;19.472;-99.276;2022-09-13T07:21:30;16.45;;;14.75;;
13832;SDS011;6987;19.472;-99.276;2022-09-13T07:23:59;18.13;;;14.13;;
13832;SDS011;6987;19.472;-99.276;2022-09-13T07:26:28;16.52;;;14.20;;
13832;SDS011;6987;19.472;-99.276;2022-09-13T07:28:58;16.17;;;13.75;;
13832;SDS011;6987;19.472;-99.276;2022-09-13T07:31:28;16.00;;;14.15;;
13832;SDS011;6987;19.472;-99.276;2022-09-13T07:33:57;14.70;;;13.15;;
13832;SDS011;6987;19.472;-99.276;2022-09-13T07:36:28;16.52;;;14.82;;
13832;SDS011;6987;19.472;-99.276;2022-09-13T07:38:57;15.27;;;13.57;;
13832;SDS011;6987;19.472;-99.276;2022-09-13T07:41:27;15.82;;;13.75;;
13832;SDS011;6987;19.472;-99.276;2022-09-13T07:43:56;17.58;;;14.82;;
13832;SDS011;6987;19.472;-99.276;2022-09-13T07:46:25;23.67;;;16.30;;
13832;SDS011;6987;19.472;-99.276;2022-09-13T07:48:57;17.70;;;15.82;;
13832;SDS011;6987;19.472;-99.276;2022-09-13T07:51:26;19.02;;;15.30;;
13832;SDS011;6987;19.472;-99.276;2022-09-13T07:53:57;16.17;;;14.48;;
13832;SDS011;6987;19.472;-99.276;2022-09-13T07:56:27;17.55;;;15.27;;
13832;SDS011;6987;19.472;-99.276;2022-09-13T07:58:57;18.38;;;14.80;;
13832;SDS011;6987;19.472;-99.276;2022-09-13T08:01:26;19.23;;;16.13;;
13832;SDS011;6987;19.472;-99.276;2022-09-13T08:03:56;17.73;;;15.82;;
13832;SDS011;6987;19.472;-99.276;2022-09-13T08:06:26;18.75;;;15.57;;
13832;SDS011;6987;19.472;-99.276;2022-09-13T08:08:55;21.50;;;16.88;;
13832;SDS011;6987;19.472;-99.276;2022-09-13T08:11:26;21.88;;;16.38;;
13832;SDS011;6987;19.472;-99.276;2022-09-13T08:13:56;20.13;;;15.93;;
13832;SDS011;6987;19.472;-99.276;2022-09-13T08:16:25;22.13;;;16.30;;
13832;SDS011;6987;19.472;-99.276;2022-09-13T08:18:54;21.17;;;16.90;;
13832;SDS011;6987;19.472;-99.276;2022-09-13T08:21:24;20.77;;;16.00;;
13832;SDS011;6987;19.472;-99.276;2022-09-13T08:23:55;20.10;;;16.52;;
13832;SDS011;6987;19.472;-99.276;2022-09-13T08:26:27;21.08;;;16.77;;
13832;SDS011;6987;19.472;-99.276;2022-09-13T08:28:56;22.15;;;17.35;;
13832;SDS011;6987;19.472;-99.276;2022-09-13T08:31:25;21.52;;;16.52;;
13832;SDS011;6987;19.472;-99.276;2022-09-13T08:33:55;19.15;;;17.13;;
13832;SDS011;6987;19.472;-99.276;2022-09-13T08:36:24;21.70;;;17.42;;
13832;SDS011;6987;19.472;-99.276;2022-09-13T08:38:53;20.05;;;16.88;;
13832;SDS011;6987;19.472;-99.276;2022-09-13T08:44:19;20.95;;;17.27;;
13832;SDS011;6987;19.472;-99.276;2022-09-13T08:46:52;24.15;;;18.10;;
13832;SDS011;6987;19.472;-99.276;2022-09-13T08:49:25;21.77;;;16.95;;
13832;SDS011;6987;19.472;-99.276;2022-09-13T08:51:56;19.52;;;17.25;;
13832;SDS011;6987;19.472;-99.276;2022-09-13T08:54:26;23.60;;;17.67;;
13832;SDS011;6987;19.472;-99.276;2022-09-13T08:56:56;20.40;;;16.55;;
13832;SDS011;6987;19.472;-99.276;2022-09-13T08:59:38;22.70;;;17.23;;
13832;SDS011;6987;19.472;-99.276;2022-09-13T09:02:16;21.38;;;17.08;;
13832;SDS011;6987;19.472;-99.276;2022-09-13T09:04:50;20.25;;;16.67;;
13832;SDS011;6987;19.472;-99.276;2022-09-13T09:07:21;19.75;;;16.83;;
13832;SDS011;6987;19.472;-99.276;2022-09-13T09:09:52;20.13;;;16.98;;
13832;SDS011;6987;19.472;-99.276;2022-09-13T09:12:24;19.70;;;17.13;;
13832;SDS011;6987;19.472;-99.276;2022-09-13T09:14:59;19.10;;;15.45;;
13832;SDS011;6987;19.472;-99.276;2022-09-13T09:17:29;20.00;;;15.77;;
13832;SDS011;6987;19.472;-99.276;2022-09-13T09:20:01;18.55;;;15.07;;
13832;SDS011;6987;19.472;-99.276;2022-09-13T09:22:31;18.08;;;16.10;;
13832;SDS011;6987;19.472;-99.276;2022-09-13T09:25:02;22.20;;;16.17;;
13832;SDS011;6987;19.472;-99.276;2022-09-13T09:27:31;23.40;;;15.68;;
13832;SDS011;6987;19.472;-99.276;2022-09-13T09:30:02;19.30;;;15.88;;
13832;SDS011;6987;19.472;-99.276;2022-09-13T09:32:42;20.95;;;16.42;;
13832;SDS011;6987;19.472;-99.276;2022-09-13T09:35:16;16.50;;;14.27;;
13832;SDS011;6987;19.472;-99.276;2022-09-13T09:37:50;17.83;;;14.63;;
13832;SDS011;6987;19.472;-99.276;2022-09-13T09:40:22;16.02;;;13.88;;
13832;SDS011;6987;19.472;-99.276;2022-09-13T09:42:51;15.48;;;13.85;;
13832;SDS011;6987;19.472;-99.276;2022-09-13T09:45:25;18.90;;;14.30;;
13832;SDS011;6987;19.472;-99.276;2022-09-13T09:47:54;17.85;;;14.00;;
13832;SDS011;6987;19.472;-99.276;2022-09-13T09:50:24;15.80;;;13.75;;
13832;SDS011;6987;19.472;-99.276;2022-09-13T09:52:56;20.17;;;13.50;;
13832;SDS011;6987;19.472;-99.276;2022-09-13T09:55:27;18.55;;;14.02;;
13832;SDS011;6987;19.472;-99.276;2022-09-13T09:57:56;16.08;;;13.95;;
13832;SDS011;6987;19.472;-99.276;2022-09-13T10:00:28;16.02;;;13.80;;
13832;SDS011;6987;19.472;-99.276;2022-09-13T10:02:59;18.80;;;14.68;;
13832;SDS011;6987;19.472;-99.276;2022-09-13T10:05:30;14.02;;;12.55;;
13832;SDS011;6987;19.472;-99.276;2022-09-13T10:08:00;16.05;;;13.85;;
13832;SDS011;6987;19.472;-99.276;2022-09-13T10:10:33;16.98;;;14.15;;
13832;SDS011;6987;19.472;-99.276;2022-09-13T10:13:03;21.92;;;15.25;;
13832;SDS011;6987;19.472;-99.276;2022-09-13T10:15:36;17.55;;;14.20;;
13832;SDS011;6987;19.472;-99.276;2022-09-13T10:18:13;17.10;;;14.30;;
13832;SDS011;6987;19.472;-99.276;2022-09-13T10:20:42;16.20;;;14.38;;
13832;SDS011;6987;19.472;-99.276;2022-09-13T10:23:26;18.63;;;14.77;;
13832;SDS011;6987;19.472;-99.276;2022-09-13T10:25:57;18.23;;;14.20;;
13832;SDS011;6987;19.472;-99.276;2022-09-13T10:28:27;19.35;;;14.70;;
13832;SDS011;6987;19.472;-99.276;2022-09-13T10:31:00;17.48;;;14.77;;
13832;SDS011;6987;19.472;-99.276;2022-09-13T10:33:30;18.35;;;15.75;;
13832;SDS011;6987;19.472;-99.276;2022-09-13T10:35:59;16.88;;;14.70;;
13832;SDS011;6987;19.472;-99.276;2022-09-13T10:38:31;19.02;;;15.18;;
13832;SDS011;6987;19.472;-99.276;2022-09-13T10:41:01;19.35;;;15.20;;
13832;SDS011;6987;19.472;-99.276;2022-09-13T10:43:31;18.42;;;13.60;;
13832;SDS011;6987;19.472;-99.276;2022-09-13T10:46:03;16.60;;;13.80;;
13832;SDS011;6987;19.472;-99.276;2022-09-13T10:48:43;14.82;;;13.30;;
13832;SDS011;6987;19.472;-99.276;2022-09-13T10:51:20;17.02;;;14.45;;
13832;SDS011;6987;19.472;-99.276;2022-09-13T10:53:49;16.52;;;14.38;;
13832;SDS011;6987;19.472;-99.276;2022-09-13T10:56:18;19.65;;;15.23;;
13832;SDS011;6987;19.472;-99.276;2022-09-13T10:58:47;17.38;;;14.55;;
13832;SDS011;6987;19.472;-99.276;2022-09-13T11:01:25;19.85;;;15.50;;
13832;SDS011;6987;19.472;-99.276;2022-09-13T11:06:48;22.27;;;16.60;;
13832;SDS011;6987;19.472;-99.276;2022-09-13T11:09:21;23.77;;;16.05;;
13832;SDS011;6987;19.472;-99.276;2022-09-13T11:11:54;22.58;;;16.85;;
13832;SDS011;6987;19.472;-99.276;2022-09-13T11:14:30;21.67;;;16.00;;
13832;SDS011;6987;19.472;-99.276;2022-09-13T11:17:07;21.45;;;15.35;;
13832;SDS011;6987;19.472;-99.276;2022-09-13T11:19:46;22.45;;;15.93;;
13832;SDS011;6987;19.472;-99.276;2022-09-13T11:22:21;20.05;;;15.20;;
13832;SDS011;6987;19.472;-99.276;2022-09-13T11:25:01;16.52;;;14.80;;
13832;SDS011;6987;19.472;-99.276;2022-09-13T11:27:32;19.40;;;15.50;;
13832;SDS011;6987;19.472;-99.276;2022-09-13T11:30:10;19.48;;;16.23;;
13832;SDS011;6987;19.472;-99.276;2022-09-13T11:32:44;19.40;;;15.02;;
13832;SDS011;6987;19.472;-99.276;2022-09-13T11:35:28;21.40;;;15.27;;
13832;SDS011;6987;19.472;-99.276;2022-09-13T11:38:03;19.50;;;14.98;;
13832;SDS011;6987;19.472;-99.276;2022-09-13T11:40:38;19.95;;;14.48;;
13832;SDS011;6987;19.472;-99.276;2022-09-13T11:43:18;18.88;;;15.05;;
13832;SDS011;6987;19.472;-99.276;2022-09-13T11:45:53;21.33;;;14.68;;
13832;SDS011;6987;19.472;-99.276;2022-09-13T11:51:16;21.67;;;14.63;;
13832;SDS011;6987;19.472;-99.276;2022-09-13T11:53:53;22.42;;;15.43;;
13832;SDS011;6987;19.472;-99.276;2022-09-13T11:56:25;22.45;;;16.10;;
13832;SDS011;6987;19.472;-99.276;2022-09-13T11:58:58;17.05;;;14.15;;
13832;SDS011;6987;19.472;-99.276;2022-09-13T12:01:30;18.80;;;14.98;;
13832;SDS011;6987;19.472;-99.276;2022-09-13T12:04:01;21.45;;;14.80;;
13832;SDS011;6987;19.472;-99.276;2022-09-13T12:06:34;16.50;;;14.75;;
13832;SDS011;6987;19.472;-99.276;2022-09-13T12:09:05;18.13;;;14.38;;
13832;SDS011;6987;19.472;-99.276;2022-09-13T12:11:35;18.42;;;15.00;;
13832;SDS011;6987;19.472;-99.276;2022-09-13T12:14:06;22.27;;;14.32;;
13832;SDS011;6987;19.472;-99.276;2022-09-13T12:16:40;19.08;;;14.13;;
13832;SDS011;6987;19.472;-99.276;2022-09-13T12:19:12;22.13;;;15.35;;
13832;SDS011;6987;19.472;-99.276;2022-09-13T12:21:43;21.05;;;14.48;;
13832;SDS011;6987;19.472;-99.276;2022-09-13T12:24:13;17.63;;;14.38;;
13832;SDS011;6987;19.472;-99.276;2022-09-13T12:26:46;27.85;;;13.95;;
13832;SDS011;6987;19.472;-99.276;2022-09-13T12:29:17;18.75;;;12.73;;
13832;SDS011;6987;19.472;-99.276;2022-09-13T12:31:46;19.70;;;14.50;;
13832;SDS011;6987;19.472;-99.276;2022-09-13T12:34:16;20.80;;;13.32;;
13832;SDS011;6987;19.472;-99.276;2022-09-13T12:37:02;17.02;;;13.27;;
13832;SDS011;6987;19.472;-99.276;2022-09-13T12:39:49;15.68;;;13.68;;
13832;SDS011;6987;19.472;-99.276;2022-09-13T12:42:25;15.65;;;13.00;;
13832;SDS011;6987;19.472;-99.276;2022-09-13T12:45:03;14.52;;;12.75;;
13832;SDS011;6987;19.472;-99.276;2022-09-13T12:47:40;17.48;;;13.45;;
13832;SDS011;6987;19.472;-99.276;2022-09-13T12:50:15;23.48;;;13.77;;
13832;SDS011;6987;19.472;-99.276;2022-09-13T12:52:50;21.23;;;14.48;;
13832;SDS011;6987;19.472;-99.276;2022-09-13T12:55:30;27.75;;;15.88;;
13832;SDS011;6987;19.472;-99.276;2022-09-13T12:58:05;31.50;;;14.68;;
13832;SDS011;6987;19.472;-99.276;2022-09-13T13:00:42;25.77;;;14.68;;
13832;SDS011;6987;19.472;-99.276;2022-09-13T13:03:13;33.88;;;15.52;;
13832;SDS011;6987;19.472;-99.276;2022-09-13T13:05:44;23.88;;;15.15;;
13832;SDS011;6987;19.472;-99.276;2022-09-13T13:08:24;24.25;;;14.85;;
13832;SDS011;6987;19.472;-99.276;2022-09-13T13:11:01;22.73;;;14.98;;
13832;SDS011;6987;19.472;-99.276;2022-09-13T13:13:32;23.73;;;15.00;;
13832;SDS011;6987;19.472;-99.276;2022-09-13T13:16:03;30.27;;;15.77;;
13832;SDS011;6987;19.472;-99.276;2022-09-13T13:18:43;29.35;;;16.00;;
13832;SDS011;6987;19.472;-99.276;2022-09-13T13:26:48;20.30;;;15.40;;
13832;SDS011;6987;19.472;-99.276;2022-09-13T13:29:18;28.92;;;17.00;;
13832;SDS011;6987;19.472;-99.276;2022-09-13T13:34:37;24.60;;;17.83;;
13832;SDS011;6987;19.472;-99.276;2022-09-13T13:37:21;20.00;;;16.60;;
13832;SDS011;6987;19.472;-99.276;2022-09-13T13:40:10;31.52;;;17.52;;
13832;SDS011;6987;19.472;-99.276;2022-09-13T13:42:41;28.15;;;16.98;;
13832;SDS011;6987;19.472;-99.276;2022-09-13T13:45:14;22.05;;;15.90;;
13832;SDS011;6987;19.472;-99.276;2022-09-13T13:50:29;25.92;;;15.82;;
13832;SDS011;6987;19.472;-99.276;2022-09-13T13:52:59;25.15;;;15.88;;
13832;SDS011;6987;19.472;-99.276;2022-09-13T13:55:42;22.92;;;15.70;;
13832;SDS011;6987;19.472;-99.276;2022-09-13T13:58:25;19.73;;;15.70;;
13832;SDS011;6987;19.472;-99.276;2022-09-13T14:00:55;21.65;;;15.68;;
13832;SDS011;6987;19.472;-99.276;2022-09-13T14:03:29;23.38;;;16.40;;
13832;SDS011;6987;19.472;-99.276;2022-09-13T14:06:01;20.17;;;17.33;;
13832;SDS011;6987;19.472;-99.276;2022-09-13T14:08:37;24.88;;;19.08;;
13832;SDS011;6987;19.472;-99.276;2022-09-13T14:11:13;25.63;;;18.02;;
13832;SDS011;6987;19.472;-99.276;2022-09-13T14:13:49;22.08;;;17.58;;
13832;SDS011;6987;19.472;-99.276;2022-09-13T14:16:25;21.77;;;17.27;;
13832;SDS011;6987;19.472;-99.276;2022-09-13T14:19:04;28.25;;;18.48;;
13832;SDS011;6987;19.472;-99.276;2022-09-13T14:21:37;24.02;;;17.42;;
13832;SDS011;6987;19.472;-99.276;2022-09-13T14:24:07;30.02;;;18.50;;
13832;SDS011;6987;19.472;-99.276;2022-09-13T14:26:36;22.73;;;17.58;;
13832;SDS011;6987;19.472;-99.276;2022-09-13T14:29:07;21.52;;;17.90;;
13832;SDS011;6987;19.472;-99.276;2022-09-13T14:31:37;24.88;;;17.35;;
13832;SDS011;6987;19.472;-99.276;2022-09-13T14:34:16;24.30;;;17.75;;
13832;SDS011;6987;19.472;-99.276;2022-09-13T14:36:50;23.63;;;17.30;;
13832;SDS011;6987;19.472;-99.276;2022-09-13T14:39:20;23.60;;;18.20;;
13832;SDS011;6987;19.472;-99.276;2022-09-13T14:41:56;24.30;;;18.20;;
13832;SDS011;6987;19.472;-99.276;2022-09-13T14:44:27;25.92;;;17.65;;
13832;SDS011;6987;19.472;-99.276;2022-09-13T14:47:01;24.02;;;18.60;;
13832;SDS011;6987;19.472;-99.276;2022-09-13T14:49:32;28.27;;;19.15;;
13832;SDS011;6987;19.472;-99.276;2022-09-13T14:52:01;21.83;;;18.58;;
13832;SDS011;6987;19.472;-99.276;2022-09-13T14:54:33;26.27;;;18.45;;
13832;SDS011;6987;19.472;-99.276;2022-09-13T14:57:03;35.65;;;17.63;;
13832;SDS011;6987;19.472;-99.276;2022-09-13T14:59:36;23.52;;;18.52;;
13832;SDS011;6987;19.472;-99.276;2022-09-13T15:02:14;22.35;;;17.50;;
13832;SDS011;6987;19.472;-99.276;2022-09-13T15:04:45;22.30;;;18.38;;
13832;SDS011;6987;19.472;-99.276;2022-09-13T15:07:19;25.40;;;20.10;;
13832;SDS011;6987;19.472;-99.276;2022-09-13T15:09:48;24.67;;;18.45;;